Time;durP1;ratioP1;P1;durP2;ratioP2;P2;SDS_P1;SDS_P2;PMS_P1;PMS_P2;Temp;Humidity;BMP_temperature;BMP_pressure;BME280_temperature;BME280_humidity;BME280_pressure;Samples;Min_cycle;Max_cycle;Signal;HPM_P1;HPM_P2
2022/03/24 00:02:11;;;;;;;106.07;68.40;;;;;;;7.87;40.01;100322.78;5072813;28;20202;-58
2022/03/24 00:04:38;;;;;;;95.83;64.57;;;;;;;7.65;40.04;100316.81;5072641;28;20219;-59
2022/03/24 00:07:05;;;;;;;75.23;51.60;;;;;;;7.56;40.37;100306.19;5072337;28;20192;-58
2022/03/24 00:09:33;;;;;;;83.23;51.23;;;;;;;7.55;40.45;100312.09;5072107;28;20219;-59
2022/03/24 00:12:00;;;;;;;60.77;39.67;;;;;;;7.55;40.27;100304.44;5072666;28;20201;-59
2022/03/24 00:14:29;;;;;;;33.27;22.77;;;;;;;7.57;40.51;100304.50;5072291;28;20210;-59
2022/03/24 00:16:55;;;;;;;59.20;38.80;;;;;;;7.54;40.39;100289.91;5072162;28;20279;-59
2022/03/24 00:19:23;;;;;;;69.80;43.90;;;;;;;7.61;40.33;100291.91;5072048;28;20189;-58
2022/03/24 00:21:51;;;;;;;27.63;18.17;;;;;;;7.63;39.56;100291.97;5072164;28;20191;-58
2022/03/24 00:24:19;;;;;;;24.37;12.43;;;;;;;7.72;39.86;100289.78;5072193;28;20194;-59
2022/03/24 00:26:46;;;;;;;30.70;21.37;;;;;;;7.62;40.47;100288.53;5072382;28;20951;-58
2022/03/24 00:29:13;;;;;;;25.87;16.97;;;;;;;7.60;40.79;100289.28;5072424;28;20228;-58
2022/03/24 00:31:42;;;;;;;40.87;26.07;;;;;;;7.46;41.29;100280.19;5072341;28;20198;-59
2022/03/24 00:34:10;;;;;;;19.77;12.60;;;;;;;7.27;41.87;100281.13;5072098;28;20237;-58
2022/03/24 00:36:37;;;;;;;23.80;14.23;;;;;;;7.21;41.42;100273.19;5071978;28;20648;-59
2022/03/24 00:39:05;;;;;;;15.73;10.87;;;;;;;7.22;42.10;100269.84;5072185;28;20231;-58
2022/03/24 00:41:32;;;;;;;20.03;13.77;;;;;;;7.17;42.01;100266.19;5071596;28;20256;-58
2022/03/24 00:44:00;;;;;;;23.37;16.03;;;;;;;7.00;42.58;100270.59;5071936;28;20191;-59
2022/03/24 00:46:27;;;;;;;25.20;15.43;;;;;;;6.75;43.53;100274.59;5071573;28;20206;-59
2022/03/24 00:48:55;;;;;;;21.73;13.37;;;;;;;6.61;43.95;100268.00;5071523;28;20669;-58
2022/03/24 00:51:22;;;;;;;25.80;13.20;;;;;;;6.47;44.31;100263.16;5071462;28;20225;-59
2022/03/24 00:53:49;;;;;;;21.70;12.03;;;;;;;6.38;44.60;100254.22;5071296;28;20196;-59
2022/03/24 00:56:18;;;;;;;22.40;12.00;;;;;;;6.11;45.19;100250.41;5071368;28;20198;-59
2022/03/24 00:58:45;;;;;;;17.30;11.57;;;;;;;6.05;45.29;100260.31;5071300;28;20276;-58
2022/03/24 01:01:12;;;;;;;19.67;12.40;;;;;;;5.99;46.26;100258.38;5071398;28;20214;-58
2022/03/24 01:03:40;;;;;;;20.27;13.37;;;;;;;5.92;46.03;100253.81;5071203;28;20224;-58
2022/03/24 01:06:09;;;;;;;15.90;11.57;;;;;;;5.90;46.11;100252.88;5071174;28;20203;-58
2022/03/24 01:08:37;;;;;;;15.73;11.23;;;;;;;5.94;46.15;100236.88;5071452;28;20242;-59
2022/03/24 01:11:05;;;;;;;16.87;11.17;;;;;;;6.03;45.70;100242.41;5071047;28;20211;-58
2022/03/24 01:13:34;;;;;;;17.47;10.60;;;;;;;6.05;46.21;100245.03;5070994;28;20196;-59
2022/03/24 01:16:01;;;;;;;23.17;11.63;;;;;;;6.05;46.81;100242.47;5071175;28;20282;-59
2022/03/24 01:18:29;;;;;;;19.83;11.83;;;;;;;5.72;46.40;100203.50;5070797;28;20271;-59
2022/03/24 01:20:56;;;;;;;23.60;11.70;;;;;;;5.72;47.13;100245.19;5071241;28;20196;-59
2022/03/24 01:23:26;;;;;;;22.10;12.53;;;;;;;5.71;48.30;100230.66;5071144;28;20195;-60
2022/03/24 01:25:54;;;;;;;20.47;10.50;;;;;;;5.78;47.79;100227.63;5070561;28;20195;-58
2022/03/24 01:28:21;;;;;;;18.47;11.53;;;;;;;5.80;48.14;100228.56;5070814;28;20319;-58
2022/03/24 01:30:48;;;;;;;18.47;11.73;;;;;;;5.72;47.90;100232.44;5070802;28;20195;-58
2022/03/24 01:33:15;;;;;;;22.33;14.20;;;;;;;5.55;49.43;100218.00;5070355;28;20441;-59
2022/03/24 01:35:42;;;;;;;24.13;12.90;;;;;;;5.41;49.95;100220.72;5070993;28;20270;-59
2022/03/24 01:38:09;;;;;;;20.47;12.80;;;;;;;5.26;50.30;100219.19;5070861;28;20195;-60
2022/03/24 01:40:38;;;;;;;20.97;12.63;;;;;;;5.26;50.93;100216.63;5070600;28;20747;-59
2022/03/24 01:43:07;;;;;;;17.97;11.60;;;;;;;5.31;50.99;100207.53;5070797;28;20936;-59
2022/03/24 01:45:35;;;;;;;18.33;11.53;;;;;;;5.36;49.96;100213.72;5070643;28;20592;-59
2022/03/24 01:48:02;;;;;;;19.43;12.07;;;;;;;5.35;50.51;100217.09;5070724;28;20196;-59
2022/03/24 01:50:28;;;;;;;16.47;11.50;;;;;;;5.33;51.02;100208.47;5070352;28;20288;-59
2022/03/24 01:52:55;;;;;;;21.00;12.33;;;;;;;5.38;50.28;100214.66;5070694;28;20193;-59
2022/03/24 01:55:23;;;;;;;22.97;11.30;;;;;;;5.45;50.79;100208.19;5069942;28;20188;-60
2022/03/24 01:57:51;;;;;;;16.70;10.97;;;;;;;5.47;50.63;100208.25;5070314;28;20201;-59
2022/03/24 02:00:19;;;;;;;14.10;9.63;;;;;;;5.58;49.13;100194.34;5070240;28;20227;-59
2022/03/24 02:02:46;;;;;;;20.67;12.23;;;;;;;5.55;49.61;100202.72;5070130;28;20199;-59
2022/03/24 02:05:13;;;;;;;21.50;12.83;;;;;;;5.61;49.90;100205.56;5070483;28;20199;-59
2022/03/24 02:07:40;;;;;;;20.40;12.37;;;;;;;5.67;49.54;100212.63;5069579;28;20198;-59
2022/03/24 02:10:08;;;;;;;19.97;11.30;;;;;;;5.69;49.89;100205.91;5070273;28;20221;-59
2022/03/24 02:12:36;;;;;;;19.67;11.20;;;;;;;5.68;49.42;100214.38;5070059;28;20274;-59
2022/03/24 02:15:06;;;;;;;19.13;11.82;;;;;;;5.83;49.20;100203.22;5069353;28;20430;-59
2022/03/24 02:17:34;;;;;;;16.40;10.43;;;;;;;5.93;47.36;100209.66;5070095;28;20197;-59
2022/03/24 02:20:01;;;;;;;15.37;10.23;;;;;;;5.96;47.08;100203.81;5070185;28;20582;-59
2022/03/24 02:22:30;;;;;;;14.57;9.77;;;;;;;5.98;47.50;100210.72;5070189;28;20574;-59
2022/03/24 02:24:57;;;;;;;21.20;11.30;;;;;;;5.99;47.88;100209.91;5070068;28;20202;-59
2022/03/24 02:27:24;;;;;;;18.23;10.37;;;;;;;6.01;47.70;100208.31;5070259;28;20200;-59
2022/03/24 02:29:51;;;;;;;12.57;9.70;;;;;;;6.03;47.16;100206.72;5069793;28;20707;-59
2022/03/24 02:32:20;;;;;;;16.30;9.87;;;;;;;5.98;47.45;100199.66;5069964;28;20291;-59
2022/03/24 02:34:51;;;;;;;17.13;9.57;;;;;;;6.03;47.77;100200.72;5070197;28;20280;-59
2022/03/24 02:37:20;;;;;;;15.97;10.40;;;;;;;6.06;47.16;100196.66;5070323;28;20189;-58
2022/03/24 02:39:50;;;;;;;11.50;8.93;;;;;;;6.04;47.10;100198.25;5070145;28;20192;-59
2022/03/24 02:42:20;;;;;;;12.60;9.60;;;;;;;6.06;46.33;100201.75;5070136;28;20194;-59
2022/03/24 02:44:49;;;;;;;12.27;9.53;;;;;;;6.03;46.51;100193.06;5070038;28;20193;-59
2022/03/24 02:47:16;;;;;;;12.47;8.87;;;;;;;6.04;46.95;100192.28;5069852;28;20662;-59
2022/03/24 02:49:46;;;;;;;15.50;9.47;;;;;;;6.04;46.96;100195.72;5069684;28;20217;-59
2022/03/24 02:52:14;;;;;;;10.30;8.23;;;;;;;5.98;47.17;100192.88;5069723;28;20208;-59
2022/03/24 02:54:41;;;;;;;15.70;9.13;;;;;;;6.00;46.94;100193.81;5069690;28;20203;-59
2022/03/24 02:57:11;;;;;;;16.00;10.60;;;;;;;6.03;46.53;100183.75;5068849;28;20537;-59
2022/03/24 02:59:38;;;;;;;18.33;9.50;;;;;;;6.02;47.26;100191.31;5069785;28;20223;-59
2022/03/24 03:02:07;;;;;;;15.17;8.97;;;;;;;5.88;46.41;100203.44;5064970;28;20203;-59
2022/03/24 03:04:36;;;;;;;15.73;8.97;;;;;;;5.69;46.51;100170.22;5049573;28;20637;-59
2022/03/24 03:07:04;;;;;;;14.23;8.97;;;;;;;5.72;47.39;100190.75;5050066;28;20215;-59
2022/03/24 03:09:32;;;;;;;15.77;9.27;;;;;;;5.67;48.34;100192.22;5049752;28;20230;-59
2022/03/24 03:12:00;;;;;;;14.80;8.63;;;;;;;5.65;47.64;100181.97;5049905;28;20205;-59
2022/03/24 03:14:29;;;;;;;11.97;9.03;;;;;;;5.53;47.89;100175.41;5049866;28;20203;-59
2022/03/24 03:16:57;;;;;;;15.53;8.70;;;;;;;5.58;47.90;100186.69;5049592;28;20194;-59
2022/03/24 03:19:24;;;;;;;10.00;8.03;;;;;;;5.58;48.23;100177.38;5053057;28;20256;-59
2022/03/24 03:21:52;;;;;;;13.23;8.57;;;;;;;5.55;48.48;100168.75;5053312;28;20637;-59
2022/03/24 03:24:21;;;;;;;17.23;8.83;;;;;;;5.52;48.76;100174.53;5063258;28;20294;-59
2022/03/24 03:26:48;;;;;;;14.87;9.57;;;;;;;5.50;48.23;100170.16;5073297;28;20547;-59
2022/03/24 03:29:16;;;;;;;16.35;10.35;;;;;;;5.50;49.30;100171.06;5052090;28;20924;-59
2022/03/24 03:31:44;;;;;;;13.50;9.50;;;;;;;5.54;49.27;100166.97;5052857;28;20617;-58
2022/03/24 03:34:11;;;;;;;17.57;10.13;;;;;;;5.44;49.54;100164.81;5053282;28;20200;-59
2022/03/24 03:36:39;;;;;;;16.80;8.73;;;;;;;5.38;49.01;100161.16;5053026;28;20676;-59
2022/03/24 03:39:08;;;;;;;13.77;8.87;;;;;;;5.33;49.64;100166.81;5069522;28;20195;-59
2022/03/24 03:41:36;;;;;;;15.20;9.43;;;;;;;5.38;49.04;100168.78;5073024;28;20192;-59
2022/03/24 03:44:04;;;;;;;14.03;9.50;;;;;;;5.40;49.66;100175.66;5072625;28;20195;-59
2022/03/24 03:46:31;;;;;;;13.43;9.43;;;;;;;5.44;49.33;100169.91;5072787;28;20257;-59
2022/03/24 03:49:00;;;;;;;17.33;11.20;;;;;;;5.44;48.75;100175.84;5072617;28;20506;-59
2022/03/24 03:51:29;;;;;;;18.17;12.13;;;;;;;5.51;48.51;100171.94;5072915;28;20199;-60
2022/03/24 03:53:56;;;;;;;16.27;11.70;;;;;;;5.52;49.05;100176.25;5072748;28;20210;-58
2022/03/24 03:56:23;;;;;;;17.43;9.43;;;;;;;5.50;48.65;100171.06;5072753;28;20215;-58
2022/03/24 03:58:50;;;;;;;13.97;9.53;;;;;;;5.53;48.10;100163.56;5072612;28;20215;-57
2022/03/24 04:01:17;;;;;;;13.00;9.63;;;;;;;5.45;47.89;100157.22;5072735;28;20532;-58
2022/03/24 04:03:44;;;;;;;18.20;10.57;;;;;;;5.49;48.10;100160.81;5072554;28;20199;-58
2022/03/24 04:06:14;;;;;;;19.43;10.03;;;;;;;5.51;48.00;100162.63;5072794;28;20200;-59
2022/03/24 04:08:42;;;;;;;12.30;9.33;;;;;;;5.46;48.95;100165.75;5072448;28;21000;-59
2022/03/24 04:11:10;;;;;;;13.87;9.37;;;;;;;5.45;48.36;100159.78;5072315;28;20222;-59
2022/03/24 04:13:38;;;;;;;10.60;8.53;;;;;;;5.48;48.02;100156.50;5072657;28;20195;-58
2022/03/24 04:16:06;;;;;;;9.60;8.60;;;;;;;5.46;48.96;100161.53;5072618;28;20262;-58
2022/03/24 04:18:33;;;;;;;14.17;9.27;;;;;;;5.46;48.84;100156.44;5072284;28;20203;-58
2022/03/24 04:21:00;;;;;;;17.83;10.40;;;;;;;5.40;48.97;100152.72;5071689;28;20817;-58
2022/03/24 04:23:28;;;;;;;14.70;9.73;;;;;;;5.42;49.37;100157.06;5071021;28;20451;-58
2022/03/24 04:25:55;;;;;;;14.47;9.57;;;;;;;5.41;49.38;100147.72;5072256;28;20204;-58
2022/03/24 04:28:22;;;;;;;20.07;9.57;;;;;;;5.44;49.52;100146.97;5072149;28;20200;-59
2022/03/24 04:30:49;;;;;;;17.87;9.93;;;;;;;5.49;49.42;100142.97;5071445;28;20217;-59
2022/03/24 04:33:16;;;;;;;17.37;10.40;;;;;;;5.59;48.57;100151.09;5071924;28;20198;-59
2022/03/24 04:35:43;;;;;;;23.40;10.77;;;;;;;5.50;49.52;100143.00;5071990;28;20204;-59
2022/03/24 04:38:10;;;;;;;19.63;10.00;;;;;;;5.48;49.86;100142.09;5072095;28;20228;-59
2022/03/24 04:40:38;;;;;;;17.87;10.37;;;;;;;5.53;49.14;100139.72;5071851;28;20188;-58
2022/03/24 04:43:05;;;;;;;18.70;9.80;;;;;;;5.58;49.36;100135.72;5070723;28;20211;-58
2022/03/24 04:45:33;;;;;;;17.33;9.10;;;;;;;5.55;50.10;100138.16;5071956;28;20196;-58
2022/03/24 04:48:01;;;;;;;16.00;10.33;;;;;;;5.66;49.18;100140.38;5069958;28;20203;-58
2022/03/24 04:50:29;;;;;;;18.20;10.83;;;;;;;5.53;49.91;100104.94;5071414;28;20216;-60
2022/03/24 04:52:57;;;;;;;17.30;10.07;;;;;;;5.77;49.28;100135.75;5071783;28;20194;-59
2022/03/24 04:55:24;;;;;;;19.67;12.50;;;;;;;5.71;50.46;100144.00;5071464;28;20688;-58
2022/03/24 04:57:52;;;;;;;21.60;15.73;;;;;;;5.85;50.13;100149.78;5071683;28;20196;-59
2022/03/24 05:00:19;;;;;;;21.73;13.87;;;;;;;5.90;48.88;100149.19;5071228;28;20226;-58
2022/03/24 05:02:47;;;;;;;24.93;16.30;;;;;;;6.08;49.21;100150.78;5068066;28;20485;-57
2022/03/24 05:05:15;;;;;;;20.87;12.73;;;;;;;6.26;48.29;100142.25;5069354;28;20721;-56
2022/03/24 05:07:42;;;;;;;13.97;10.23;;;;;;;6.48;48.05;100137.25;5071261;28;20290;-57
2022/03/24 05:10:10;;;;;;;16.70;10.57;;;;;;;6.62;47.08;100148.06;5070985;28;20219;-57
2022/03/24 05:12:39;;;;;;;23.00;14.40;;;;;;;6.65;47.27;100148.19;5070992;28;20284;-57
2022/03/24 05:15:10;;;;;;;24.30;14.47;;;;;;;6.65;47.20;100149.91;5070914;28;20645;-56
2022/03/24 05:17:37;;;;;;;22.67;14.57;;;;;;;6.76;46.97;100140.97;5071049;28;20192;-56
2022/03/24 05:20:05;;;;;;;20.00;12.53;;;;;;;6.70;47.02;100110.97;5070116;28;20204;-57
2022/03/24 05:22:53;;;;;;;17.87;11.03;;;;;;;7.01;46.47;100131.84;5069479;28;20203;-57
2022/03/24 05:25:20;;;;;;;16.97;10.50;;;;;;;6.87;45.83;100079.31;5068749;28;20204;-57
2022/03/24 05:27:47;;;;;;;15.77;10.57;;;;;;;7.32;45.33;100128.81;5068389;28;20504;-57
2022/03/24 05:30:15;;;;;;;18.30;10.20;;;;;;;7.63;45.01;100125.75;5068493;28;20227;-58
2022/03/24 05:32:42;;;;;;;11.87;7.87;;;;;;;7.85;43.16;100125.75;5068824;28;20191;-56
2022/03/24 05:35:10;;;;;;;11.77;8.13;;;;;;;8.08;42.55;100124.88;5068459;28;20690;-56
2022/03/24 05:37:37;;;;;;;13.50;8.47;;;;;;;8.32;41.95;100118.09;5068537;28;20209;-56
2022/03/24 05:40:06;;;;;;;13.20;8.83;;;;;;;8.49;42.18;100118.69;5069966;28;20193;-57
2022/03/24 05:42:32;;;;;;;13.35;8.20;;;;;;;8.81;40.61;100123.22;5069163;28;20504;-57
2022/03/24 05:44:59;;;;;;;13.33;7.60;;;;;;;9.11;39.87;100125.91;5070146;28;20195;-56
2022/03/24 05:47:28;;;;;;;16.57;7.83;;;;;;;9.31;39.21;100136.78;5070260;28;20195;-57
2022/03/24 05:49:54;;;;;;;12.37;8.13;;;;;;;9.52;38.91;100128.88;5070284;28;20605;-56
2022/03/24 05:52:22;;;;;;;16.40;7.80;;;;;;;9.64;38.60;100135.22;5070039;28;20684;-58
2022/03/24 05:54:49;;;;;;;13.23;8.13;;;;;;;9.78;38.41;100127.97;5069875;28;20203;-59
2022/03/24 05:57:15;;;;;;;12.00;7.47;;;;;;;9.93;37.74;100126.72;5069958;28;20195;-59
2022/03/24 05:59:42;;;;;;;11.83;7.47;;;;;;;9.95;37.86;100122.47;5070015;28;20310;-59
2022/03/24 06:02:09;;;;;;;13.43;8.13;;;;;;;10.06;38.30;100136.50;5070101;28;20281;-59
2022/03/24 06:04:41;;;;;;;13.73;8.63;;;;;;;10.16;37.86;100127.41;5070104;28;20216;-59
2022/03/24 06:07:07;;;;;;;10.10;7.53;;;;;;;10.23;37.73;100128.44;5069890;28;20301;-59
2022/03/24 06:09:35;;;;;;;12.33;8.03;;;;;;;10.30;37.82;100127.78;5069626;28;20205;-58
2022/03/24 06:12:02;;;;;;;10.20;7.30;;;;;;;10.42;37.97;100122.97;5069734;28;20199;-59
2022/03/24 06:14:31;;;;;;;10.83;8.03;;;;;;;10.44;38.00;100127.31;5069707;28;20527;-59
2022/03/24 06:16:58;;;;;;;16.80;8.50;;;;;;;10.51;37.91;100131.78;5069764;28;20251;-59
2022/03/24 06:19:24;;;;;;;13.97;8.30;;;;;;;10.59;37.79;100119.16;5069739;28;20202;-59
2022/03/24 06:21:53;;;;;;;11.67;8.40;;;;;;;10.66;37.54;100118.47;5069569;28;20191;-59
2022/03/24 06:24:20;;;;;;;17.53;8.40;;;;;;;10.81;37.36;100113.72;5069532;28;20297;-59
2022/03/24 06:26:47;;;;;;;17.83;8.30;;;;;;;10.98;36.47;100125.31;5069574;28;20253;-59
2022/03/24 06:29:14;;;;;;;13.83;7.73;;;;;;;11.07;36.42;100119.50;5069382;28;20199;-59
2022/03/24 06:31:41;;;;;;;14.50;8.73;;;;;;;11.05;36.66;100122.03;5069508;28;20219;-59
2022/03/24 06:34:09;;;;;;;11.23;8.17;;;;;;;11.21;36.06;100113.84;5069473;28;20190;-59
2022/03/24 06:36:36;;;;;;;9.33;7.57;;;;;;;11.30;36.27;100102.91;5069597;28;20190;-59
2022/03/24 06:39:05;;;;;;;19.03;8.23;;;;;;;11.36;36.06;100097.91;5069331;28;20196;-59
2022/03/24 06:41:31;;;;;;;13.57;8.17;;;;;;;11.49;35.82;100109.31;5069329;28;20187;-59
2022/03/24 06:43:59;;;;;;;12.37;7.27;;;;;;;11.59;34.83;100098.41;5069363;28;20654;-58
2022/03/24 06:46:26;;;;;;;12.97;7.93;;;;;;;11.69;34.94;100103.81;5069156;28;20199;-59
2022/03/24 06:48:54;;;;;;;11.43;8.17;;;;;;;11.81;35.00;100108.38;5069227;28;20278;-58
2022/03/24 06:51:21;;;;;;;12.83;7.33;;;;;;;11.86;34.82;100104.19;5068885;28;20222;-59
2022/03/24 06:53:48;;;;;;;13.27;8.10;;;;;;;11.96;34.69;100107.78;5071709;28;20195;-60
2022/03/24 06:56:16;;;;;;;18.15;9.02;;;;;;;12.05;34.32;100113.16;5072904;28;20516;-59
2022/03/24 06:58:44;;;;;;;13.43;8.40;;;;;;;12.11;34.67;100113.28;5072884;28;20195;-58
2022/03/24 07:01:11;;;;;;;10.90;7.87;;;;;;;12.16;34.38;100102.22;5072930;28;20244;-58
2022/03/24 07:03:38;;;;;;;12.67;7.03;;;;;;;12.23;34.15;100110.91;5073074;28;20192;-58
2022/03/24 07:06:05;;;;;;;11.80;7.63;;;;;;;12.25;34.46;100098.97;5073345;28;20195;-59
2022/03/24 07:08:32;;;;;;;15.60;8.30;;;;;;;12.38;34.37;100106.06;5072661;28;20203;-59
2022/03/24 07:10:59;;;;;;;14.37;8.70;;;;;;;12.51;34.11;100099.41;5072840;28;20211;-60
2022/03/24 07:13:27;;;;;;;15.90;8.40;;;;;;;12.59;34.22;100106.47;5072791;28;20205;-59
2022/03/24 07:15:54;;;;;;;16.57;8.70;;;;;;;12.68;33.65;100109.22;5073156;28;20221;-59
2022/03/24 07:18:21;;;;;;;14.30;9.47;;;;;;;12.74;33.99;100116.19;5072894;28;20196;-59
2022/03/24 07:20:49;;;;;;;17.87;8.90;;;;;;;12.92;33.51;100111.31;5072741;28;20561;-59
2022/03/24 07:23:16;;;;;;;12.27;8.00;;;;;;;12.98;33.14;100099.41;5073034;28;20291;-59
2022/03/24 07:25:42;;;;;;;14.03;8.07;;;;;;;12.96;33.45;100103.66;5072416;28;20302;-59
2022/03/24 07:28:11;;;;;;;14.40;8.63;;;;;;;13.09;33.47;100096.16;5072849;28;20188;-59
2022/03/24 07:30:39;;;;;;;13.97;8.97;;;;;;;13.21;32.85;100092.03;5072595;28;20218;-59
2022/03/24 07:33:07;;;;;;;12.80;7.90;;;;;;;13.20;32.42;100103.22;5072070;28;20199;-59
2022/03/24 07:35:35;;;;;;;10.33;8.47;;;;;;;13.37;32.75;100106.94;5072339;28;20621;-59
2022/03/24 07:38:03;;;;;;;15.32;8.50;;;;;;;13.43;32.09;100108.72;5072369;28;20438;-59
2022/03/24 07:40:29;;;;;;;11.93;7.70;;;;;;;13.53;32.30;100115.75;5072380;28;20189;-59
2022/03/24 07:42:58;;;;;;;16.37;8.73;;;;;;;13.58;32.20;100102.06;5072350;28;20201;-58
2022/03/24 07:45:26;;;;;;;12.87;7.77;;;;;;;13.69;31.93;100104.78;5072079;28;20197;-59
2022/03/24 07:48:25;;;;;;;15.27;8.07;;;;;;;13.77;31.97;100100.59;5072360;28;20551;-59
2022/03/24 07:50:53;;;;;;;12.60;8.70;;;;;;;13.91;31.67;100106.81;5036780;28;20449;-59
2022/03/24 07:53:39;;;;;;;17.47;8.90;;;;;;;14.03;31.51;100109.56;5072219;28;20203;-59
2022/03/24 07:56:06;;;;;;;13.80;8.70;;;;;;;14.14;31.92;100107.09;5071863;28;20199;-59
2022/03/24 07:58:33;;;;;;;12.83;8.53;;;;;;;14.05;31.54;100076.84;5071906;28;20192;-59
2022/03/24 08:01:01;;;;;;;11.13;7.67;;;;;;;14.13;31.50;100087.25;5071900;28;20227;-59
2022/03/24 08:03:29;;;;;;;12.77;7.17;;;;;;;14.26;31.62;100098.59;5071827;28;20250;-59
2022/03/24 08:05:57;;;;;;;15.57;8.83;;;;;;;14.36;31.57;100093.59;5071320;28;20194;-59
2022/03/24 08:08:26;;;;;;;12.30;8.67;;;;;;;14.42;31.11;100091.03;5071953;28;20253;-59
2022/03/24 08:10:54;;;;;;;12.13;7.80;;;;;;;14.56;30.92;100086.00;5071853;28;20216;-59
2022/03/24 08:13:22;;;;;;;11.03;8.00;;;;;;;14.65;30.82;100089.56;5071642;28;20202;-59
2022/03/24 08:15:50;;;;;;;12.03;8.43;;;;;;;14.75;30.82;100088.78;5071638;28;20206;-59
2022/03/24 08:18:18;;;;;;;9.77;7.03;;;;;;;14.79;30.78;100071.56;5071823;28;20196;-59
2022/03/24 08:20:49;;;;;;;13.63;8.23;;;;;;;14.90;30.84;100079.41;5071277;28;20191;-59
2022/03/24 08:23:17;;;;;;;12.80;8.13;;;;;;;14.97;30.43;100078.63;5071384;28;20296;-60
2022/03/24 08:25:45;;;;;;;16.33;8.47;;;;;;;15.01;30.62;100072.59;5071394;28;20189;-59
2022/03/24 08:28:13;;;;;;;13.30;8.90;;;;;;;15.06;30.36;100073.50;5071342;28;20193;-60
2022/03/24 08:30:41;;;;;;;16.13;8.90;;;;;;;15.13;30.17;100070.13;5070789;28;20445;-60
2022/03/24 08:33:09;;;;;;;11.53;8.43;;;;;;;15.22;29.92;100067.56;5071151;28;20203;-59
2022/03/24 08:35:36;;;;;;;16.77;9.03;;;;;;;15.29;29.80;100066.78;5071188;28;20230;-60
2022/03/24 08:38:04;;;;;;;12.60;8.27;;;;;;;15.31;30.00;100059.88;5071208;28;20215;-60
2022/03/24 08:40:31;;;;;;;12.30;8.77;;;;;;;15.46;29.51;100060.03;5070919;28;20278;-59
2022/03/24 08:42:58;;;;;;;15.57;8.57;;;;;;;15.51;29.54;100055.72;5071331;28;20218;-59
2022/03/24 08:45:25;;;;;;;17.60;9.27;;;;;;;15.64;29.57;100054.03;5071074;28;20224;-59
2022/03/24 08:47:53;;;;;;;14.57;8.93;;;;;;;15.74;29.34;100056.69;5070928;28;20231;-59
2022/03/24 08:50:21;;;;;;;15.07;8.57;;;;;;;15.84;29.07;100053.28;5070728;28;20193;-59
2022/03/24 08:52:49;;;;;;;15.17;10.03;;;;;;;15.91;29.17;100059.34;5071079;28;20206;-62
2022/03/24 08:55:18;;;;;;;11.87;8.53;;;;;;;15.97;28.96;100046.41;5070624;28;20196;-59
2022/03/24 08:57:45;;;;;;;12.77;8.80;;;;;;;16.09;28.70;100043.00;5070979;28;20256;-59
2022/03/24 09:00:15;;;;;;;12.60;9.00;;;;;;;16.20;29.15;100031.81;5071009;28;20233;-59
2022/03/24 09:02:44;;;;;;;13.37;9.20;;;;;;;16.39;28.43;100036.16;5070833;28;20289;-59
2022/03/24 09:05:11;;;;;;;12.13;9.20;;;;;;;16.46;28.18;100031.81;5070756;28;20566;-59
2022/03/24 09:07:38;;;;;;;15.20;9.83;;;;;;;16.55;26.53;100023.22;5070849;28;20188;-59
2022/03/24 09:10:06;;;;;;;13.80;8.90;;;;;;;16.63;26.03;100024.09;5070658;28;20222;-59
2022/03/24 09:12:37;;;;;;;15.53;9.63;;;;;;;16.74;24.64;100025.81;5070549;28;20241;-60
2022/03/24 09:15:07;;;;;;;11.93;9.37;;;;;;;16.80;24.38;100030.16;5070324;28;20195;-59
2022/03/24 09:17:35;;;;;;;12.47;9.50;;;;;;;16.97;23.99;100024.09;5070433;28;20570;-59
2022/03/24 09:20:03;;;;;;;13.20;10.73;;;;;;;17.01;24.00;100025.81;5070341;28;20205;-60
2022/03/24 09:22:30;;;;;;;14.93;9.87;;;;;;;17.00;23.70;100015.44;5070310;28;20637;-60
2022/03/24 09:24:57;;;;;;;10.53;9.17;;;;;;;17.02;24.37;100000.72;5070276;28;20674;-59
2022/03/24 09:27:24;;;;;;;19.67;10.63;;;;;;;17.11;24.50;100011.09;5070264;28;20639;-60
2022/03/24 09:29:52;;;;;;;18.63;10.57;;;;;;;17.28;24.02;99998.06;5070068;28;20200;-59
2022/03/24 09:32:19;;;;;;;13.57;10.47;;;;;;;17.27;23.47;99998.94;5070158;28;20223;-60
2022/03/24 09:34:46;;;;;;;16.23;10.03;;;;;;;17.42;23.50;100004.06;5070139;28;20202;-59
2022/03/24 09:37:17;;;;;;;14.23;10.50;;;;;;;17.44;23.56;100000.59;5070077;28;20191;-60
2022/03/24 09:39:44;;;;;;;12.83;10.50;;;;;;;17.52;23.25;99991.06;5069995;28;20188;-60
2022/03/24 09:42:11;;;;;;;18.30;10.63;;;;;;;17.57;23.39;99991.06;5070028;28;20546;-59
2022/03/24 09:44:39;;;;;;;15.93;11.00;;;;;;;17.58;22.99;99982.38;5070110;28;20187;-59
2022/03/24 09:47:11;;;;;;;14.23;10.67;;;;;;;17.68;23.35;99991.88;5070371;28;20206;-58
2022/03/24 09:49:39;;;;;;;16.40;10.67;;;;;;;17.71;22.86;99980.59;5069637;28;20260;-59
2022/03/24 09:52:06;;;;;;;14.57;10.80;;;;;;;17.76;22.57;99982.31;5069865;28;20255;-60
2022/03/24 09:54:33;;;;;;;15.90;11.48;;;;;;;17.83;22.49;99983.13;5069767;28;20444;-60
2022/03/24 09:57:04;;;;;;;15.43;11.17;;;;;;;17.89;22.61;99980.50;5069659;28;20275;-60
2022/03/24 09:59:32;;;;;;;14.97;11.00;;;;;;;17.96;22.45;99975.28;5069668;28;20234;-60
2022/03/24 10:02:01;;;;;;;15.60;10.63;;;;;;;18.12;22.33;99963.03;5069640;28;20561;-60
2022/03/24 10:04:44;;;;;;;13.20;10.27;;;;;;;18.17;21.84;99980.34;5069751;28;20264;-59
2022/03/24 10:07:11;;;;;;;13.77;10.80;;;;;;;18.04;22.10;99960.50;5069635;28;20195;-60
2022/03/24 10:09:39;;;;;;;13.87;10.83;;;;;;;18.15;21.90;99963.88;5069261;28;20308;-60
2022/03/24 10:12:06;;;;;;;12.10;9.80;;;;;;;18.10;21.87;99964.78;5069074;28;20298;-60
2022/03/24 10:14:33;;;;;;;11.90;10.70;;;;;;;18.19;21.49;99968.16;5069207;28;20285;-60
2022/03/24 10:17:08;;;;;;;15.90;10.63;;;;;;;18.13;21.76;99942.19;5069154;28;20191;-59
2022/03/24 10:19:38;;;;;;;14.37;10.97;;;;;;;18.14;21.91;99935.28;5069351;28;20198;-60
2022/03/24 10:22:09;;;;;;;16.27;10.90;;;;;;;18.37;21.80;99956.78;5068785;28;20212;-60
2022/03/24 10:24:43;;;;;;;13.80;11.73;;;;;;;18.41;21.41;99952.41;5068765;28;20198;-60
2022/03/24 10:27:13;;;;;;;13.45;10.30;;;;;;;18.45;21.38;99964.53;5067532;28;20435;-59
2022/03/24 10:29:40;;;;;;;11.63;10.00;;;;;;;18.31;21.30;99910.00;5068808;28;20659;-59
2022/03/24 10:32:14;;;;;;;13.43;10.53;;;;;;;18.52;21.49;99948.88;5069136;28;20226;-60
2022/03/24 10:34:43;;;;;;;13.20;10.80;;;;;;;18.38;21.16;99922.06;5068814;28;20260;-59
2022/03/24 10:37:13;;;;;;;15.97;11.07;;;;;;;18.22;21.43;99925.66;5068599;28;20944;-60
2022/03/24 10:39:56;;;;;;;14.27;11.60;;;;;;;18.46;21.57;99920.25;5068931;28;20194;-59
2022/03/24 10:42:26;;;;;;;15.47;10.87;;;;;;;18.59;21.56;99926.25;5069088;28;20621;-60
2022/03/24 10:45:18;;;;;;;16.13;11.67;;;;;;;18.63;21.51;99913.19;5065571;28;20257;-60
2022/03/24 10:47:48;;;;;;;16.37;12.17;;;;;;;18.81;21.07;99917.38;5059648;28;20589;-62
2022/03/24 10:50:25;;;;;;;14.80;10.73;;;;;;;18.87;20.83;99916.44;5057845;28;20199;-60
2022/03/24 10:52:53;;;;;;;16.47;11.03;;;;;;;18.91;21.20;99903.38;5055827;28;20658;-59
2022/03/24 10:55:30;;;;;;;12.60;10.80;;;;;;;18.98;21.02;99904.19;5065132;28;20207;-60
2022/03/24 10:57:58;;;;;;;13.37;10.43;;;;;;;18.86;20.45;99884.34;5069557;28;20286;-59
2022/03/24 11:00:26;;;;;;;19.00;11.23;;;;;;;18.96;20.57;99898.09;5062513;28;20695;-60
2022/03/24 11:02:52;;;;;;;13.07;9.77;;;;;;;19.08;20.80;99895.38;5049404;28;20192;-61
2022/03/24 11:05:19;;;;;;;17.97;11.10;;;;;;;19.02;20.67;99895.44;5052093;28;20191;-60
2022/03/24 11:07:53;;;;;;;16.70;10.93;;;;;;;19.10;20.58;99889.25;5053934;28;20299;-59
2022/03/24 11:10:21;;;;;;;17.97;10.57;;;;;;;19.03;20.45;99866.78;5064905;28;20256;-59
2022/03/24 11:12:51;;;;;;;13.53;11.33;;;;;;;19.27;20.34;99871.69;5064023;28;20226;-60
2022/03/24 11:15:19;;;;;;;18.37;11.33;;;;;;;19.37;20.48;99878.47;5048892;28;20202;-60
2022/03/24 11:17:48;;;;;;;16.30;11.00;;;;;;;19.43;19.84;99868.03;5048401;28;20471;-61
2022/03/24 11:20:23;;;;;;;16.87;11.53;;;;;;;19.47;19.29;99855.81;5049188;28;20303;-60
2022/03/24 11:22:54;;;;;;;14.53;12.00;;;;;;;19.56;19.22;99844.41;5049276;28;20278;-61
2022/03/24 11:25:22;;;;;;;12.23;11.00;;;;;;;19.55;19.14;99850.50;5049302;28;20262;-60